Time;durP1;ratioP1;P1;durP2;ratioP2;P2;SDS_P1;SDS_P2;PMS_P1;PMS_P2;Temp;Humidity;BMP_temperature;BMP_pressure;BME280_temperature;BME280_humidity;BME280_pressure;Samples;Min_cycle;Max_cycle;Signal;HPM_P1;HPM_P2
2021/05/05 00:00:21;;;;;;;2.95;1.38;;;10.60;99.90;;;;;;5047903;28;20048;-74
2021/05/05 00:02:47;;;;;;;2.17;1.10;;;10.60;99.90;;;;;;5047443;28;20115;-75
2021/05/05 00:05:14;;;;;;;5.00;1.10;;;10.60;99.90;;;;;;5042673;28;20080;-76
2021/05/05 00:07:42;;;;;;;6.45;1.52;;;10.70;99.90;;;;;;5046526;28;20056;-75
2021/05/05 00:10:09;;;;;;;2.17;1.15;;;10.60;99.90;;;;;;5049406;28;20057;-76
2021/05/05 00:12:37;;;;;;;2.80;1.10;;;10.70;99.90;;;;;;5043990;28;20076;-75
2021/05/05 00:15:15;;;;;;;1.00;0.90;;;10.70;99.90;;;;;;5049723;28;20044;-76
2021/05/05 00:17:42;;;;;;;2.80;1.13;;;10.70;99.90;;;;;;5055177;28;20075;-76
2021/05/05 00:20:11;;;;;;;1.67;1.25;;;10.60;99.90;;;;;;5051631;28;20498;-76
2021/05/05 00:22:38;;;;;;;2.65;0.93;;;10.70;99.90;;;;;;5049027;28;20377;-75
2021/05/05 00:25:06;;;;;;;1.40;1.05;;;10.80;99.90;;;;;;5052128;28;20094;-75
2021/05/05 00:27:32;;;;;;;3.10;1.13;;;10.90;99.90;;;;;;5049995;28;20103;-76
2021/05/05 00:29:59;;;;;;;1.60;1.25;;;10.80;99.90;;;;;;5050161;28;20056;-76
2021/05/05 00:32:26;;;;;;;1.45;0.98;;;10.80;99.90;;;;;;5052318;28;20106;-74
2021/05/05 00:34:53;;;;;;;4.88;1.50;;;10.70;99.90;;;;;;5048499;28;20151;-74
2021/05/05 00:37:19;;;;;;;2.53;1.20;;;10.70;99.90;;;;;;5050529;28;20618;-74
2021/05/05 00:39:46;;;;;;;2.17;1.00;;;10.60;99.90;;;;;;5033145;28;20049;-74
2021/05/05 00:42:12;;;;;;;3.35;1.15;;;10.40;99.90;;;;;;5047506;28;20045;-75
2021/05/05 00:44:38;;;;;;;3.85;1.33;;;10.40;99.90;;;;;;5049345;28;20099;-75
2021/05/05 00:47:07;;;;;;;3.13;1.25;;;10.60;99.90;;;;;;5051352;28;20087;-75
2021/05/05 00:49:34;;;;;;;3.90;1.70;;;10.40;99.90;;;;;;5050599;28;20133;-74
2021/05/05 00:52:01;;;;;;;4.20;1.23;;;10.40;99.90;;;;;;5049731;28;20373;-74
2021/05/05 00:54:27;;;;;;;2.28;1.40;;;10.40;99.90;;;;;;5048935;28;20079;-75
2021/05/05 00:56:55;;;;;;;2.20;1.35;;;10.40;99.90;;;;;;5046288;28;20049;-75
2021/05/05 00:59:23;;;;;;;3.92;1.17;;;10.50;99.90;;;;;;5056362;28;20451;-75
2021/05/05 01:01:50;;;;;;;1.30;1.00;;;10.40;99.90;;;;;;5045477;28;20439;-74
2021/05/05 01:04:16;;;;;;;3.50;1.00;;;10.60;99.90;;;;;;5048677;28;20148;-74
2021/05/05 01:06:43;;;;;;;3.45;1.25;;;10.50;99.90;;;;;;5048669;28;20083;-74
2021/05/05 01:09:09;;;;;;;1.65;1.10;;;10.50;99.90;;;;;;5050565;28;20041;-74
2021/05/05 01:11:35;;;;;;;2.90;1.17;;;10.60;99.90;;;;;;5046154;28;20064;-74
2021/05/05 01:14:02;;;;;;;2.53;1.27;;;10.70;99.90;;;;;;5049329;28;20048;-74
2021/05/05 01:16:29;;;;;;;3.03;1.25;;;10.80;99.90;;;;;;5055392;28;20049;-74
2021/05/05 01:18:55;;;;;;;2.92;1.10;;;10.60;99.90;;;;;;5051369;28;20131;-74
2021/05/05 01:21:23;;;;;;;2.03;1.10;;;10.50;99.90;;;;;;5047624;28;20056;-74
2021/05/05 01:23:50;;;;;;;4.05;1.35;;;10.60;99.90;;;;;;5050598;28;20476;-74
2021/05/05 01:26:16;;;;;;;3.60;1.67;;;10.50;99.90;;;;;;5050265;28;20053;-73
2021/05/05 01:28:44;;;;;;;5.45;2.25;;;10.60;99.90;;;;;;5047782;28;20146;-73
2021/05/05 01:31:13;;;;;;;3.38;1.92;;;10.70;99.90;;;;;;5049589;28;20375;-75
2021/05/05 01:33:41;;;;;;;4.35;2.03;;;10.70;99.90;;;;;;5049492;28;20081;-74
2021/05/05 01:36:10;;;;;;;3.60;2.10;;;10.70;99.90;;;;;;5045327;28;20053;-75
2021/05/05 01:38:37;;;;;;;4.75;2.15;;;10.60;99.90;;;;;;5049647;28;20053;-73
2021/05/05 01:41:04;;;;;;;3.72;1.33;;;10.50;99.90;;;;;;5049106;28;20494;-76
2021/05/05 01:43:31;;;;;;;4.55;1.08;;;10.70;99.90;;;;;;5043501;28;20784;-73
2021/05/05 01:45:57;;;;;;;1.92;1.13;;;10.60;99.90;;;;;;5049718;28;20430;-75
2021/05/05 01:48:24;;;;;;;4.43;1.30;;;10.50;99.90;;;;;;5049782;28;20041;-74
2021/05/05 01:50:50;;;;;;;3.17;1.30;;;10.50;99.90;;;;;;5050394;28;20210;-74
2021/05/05 01:53:17;;;;;;;2.70;1.20;;;10.40;99.90;;;;;;5048681;28;20080;-74
2021/05/05 01:55:44;;;;;;;2.35;0.90;;;10.20;99.90;;;;;;5049967;28;20450;-73
2021/05/05 01:58:11;;;;;;;5.03;2.00;;;10.20;99.90;;;;;;5047301;28;20080;-74
2021/05/05 02:00:38;;;;;;;7.38;1.10;;;10.20;99.90;;;;;;5041104;28;20049;-74
2021/05/05 02:03:04;;;;;;;1.80;0.93;;;10.30;99.90;;;;;;5048294;28;20075;-74
2021/05/05 02:05:34;;;;;;;2.42;0.90;;;10.30;99.90;;;;;;5049431;28;20052;-74
2021/05/05 02:08:02;;;;;;;2.30;0.93;;;10.20;99.90;;;;;;5046140;28;20095;-74
2021/05/05 02:10:29;;;;;;;4.47;1.00;;;10.20;99.90;;;;;;5047004;28;20111;-74
2021/05/05 02:12:55;;;;;;;3.88;1.15;;;10.30;99.80;;;;;;5049001;28;20136;-74
2021/05/05 02:15:22;;;;;;;2.20;0.93;;;10.30;99.50;;;;;;5042179;28;20494;-74
2021/05/05 02:17:51;;;;;;;3.78;1.10;;;10.30;99.80;;;;;;5048916;28;20057;-75
2021/05/05 02:20:20;;;;;;;2.40;1.30;;;10.30;99.80;;;;;;5060300;28;20041;-74
2021/05/05 02:22:48;;;;;;;2.60;1.30;;;10.20;99.90;;;;;;5046998;28;20102;-75
2021/05/05 02:25:15;;;;;;;3.45;1.20;;;10.20;99.80;;;;;;5049874;28;20040;-74
2021/05/05 02:27:44;;;;;;;2.15;1.00;;;10.30;99.90;;;;;;5049510;28;20037;-74
2021/05/05 02:30:12;;;;;;;2.30;1.08;;;10.20;99.70;;;;;;5048761;28;20092;-75
2021/05/05 02:32:48;;;;;;;2.65;1.20;;;10.20;99.60;;;;;;5048139;28;20076;-73
2021/05/05 02:35:15;;;;;;;2.67;1.10;;;10.40;99.50;;;;;;5048630;28;20420;-75
2021/05/05 02:37:43;;;;;;;3.38;1.40;;;10.40;99.00;;;;;;5049571;28;20057;-75
2021/05/05 02:40:12;;;;;;;3.10;1.15;;;10.30;99.30;;;;;;5044635;28;20045;-75
2021/05/05 02:42:38;;;;;;;5.93;1.20;;;10.20;99.90;;;;;;5046730;28;20079;-75
2021/05/05 02:45:06;;;;;;;4.10;1.20;;;10.20;99.70;;;;;;5063576;28;20079;-74
2021/05/05 02:47:33;;;;;;;5.15;1.65;;;10.10;99.90;;;;;;5048096;28;20388;-75
2021/05/05 02:49:59;;;;;;;6.95;2.00;;;10.10;99.90;;;;;;5050586;28;20079;-75
2021/05/05 02:52:26;;;;;;;8.70;1.52;;;10.20;99.90;;;;;;5048382;28;20052;-74
2021/05/05 02:54:52;;;;;;;4.50;1.63;;;10.10;99.90;;;;;;5048898;28;20079;-75
2021/05/05 02:57:19;;;;;;;4.82;1.75;;;10.00;99.90;;;;;;5048850;28;20068;-76
2021/05/05 02:59:46;;;;;;;6.78;2.33;;;10.10;99.90;;;;;;5047820;28;20128;-75
2021/05/05 03:02:13;;;;;;;12.57;2.50;;;10.20;99.90;;;;;;5047245;28;20048;-75
2021/05/05 03:04:39;;;;;;;7.18;2.17;;;10.40;99.90;;;;;;5053466;28;20049;-75
2021/05/05 03:07:06;;;;;;;5.20;1.50;;;10.00;99.90;;;;;;5042153;28;20052;-75
2021/05/05 03:09:32;;;;;;;4.90;1.58;;;10.10;99.90;;;;;;5030643;28;20195;-74
2021/05/05 03:11:59;;;;;;;1.77;1.13;;;10.20;99.90;;;;;;5043155;28;20067;-75
2021/05/05 03:14:27;;;;;;;2.40;1.38;;;10.20;99.90;;;;;;5050148;28;20102;-75
2021/05/05 03:16:55;;;;;;;2.95;1.48;;;10.00;99.90;;;;;;5049750;28;20048;-76
2021/05/05 03:19:22;;;;;;;4.68;1.80;;;9.90;99.90;;;;;;5048187;28;20041;-76
2021/05/05 03:21:48;;;;;;;3.80;1.70;;;9.90;99.90;;;;;;5036339;28;20112;-75
2021/05/05 03:24:15;;;;;;;2.10;1.50;;;9.80;99.90;;;;;;5050486;28;21181;-75
2021/05/05 03:26:41;;;;;;;3.90;1.35;;;9.90;99.90;;;;;;5055529;28;20055;-75
2021/05/05 03:29:09;;;;;;;4.72;1.58;;;10.10;99.90;;;;;;5047902;28;20053;-76
2021/05/05 03:31:35;;;;;;;6.40;1.50;;;10.00;99.90;;;;;;5043832;28;20156;-76
2021/05/05 03:34:03;;;;;;;5.43;1.40;;;10.10;99.90;;;;;;5050498;28;20175;-76
2021/05/05 03:36:30;;;;;;;3.88;1.30;;;10.10;99.90;;;;;;5033676;28;20396;-75
2021/05/05 03:38:56;;;;;;;4.50;1.40;;;10.10;99.90;;;;;;5050213;28;20411;-75
2021/05/05 03:41:23;;;;;;;3.80;1.45;;;10.10;99.90;;;;;;5040994;28;20061;-75
2021/05/05 03:43:49;;;;;;;4.78;1.83;;;10.10;99.90;;;;;;5048427;28;20048;-74
2021/05/05 03:46:16;;;;;;;2.80;1.40;;;10.10;99.90;;;;;;5049933;28;20102;-75
2021/05/05 03:48:42;;;;;;;3.88;1.58;;;10.20;99.90;;;;;;5041276;28;20045;-75
2021/05/05 03:51:10;;;;;;;2.50;1.00;;;10.30;99.40;;;;;;5054328;28;20059;-75
2021/05/05 03:53:38;;;;;;;5.75;1.30;;;10.10;94.70;;;;;;5043890;28;20045;-75
2021/05/05 03:56:06;;;;;;;4.53;1.13;;;10.10;92.40;;;;;;5048743;28;20049;-77
2021/05/05 03:58:34;;;;;;;7.47;1.38;;;10.10;90.90;;;;;;5066605;28;20049;-74
2021/05/05 04:01:01;;;;;;;6.80;1.25;;;10.10;90.80;;;;;;5049916;28;20044;-75
2021/05/05 04:03:27;;;;;;;8.55;1.58;;;10.00;89.00;;;;;;5052869;28;20114;-75
2021/05/05 04:05:54;;;;;;;8.25;1.13;;;10.10;87.50;;;;;;5050115;28;20098;-75
2021/05/05 04:08:20;;;;;;;4.45;1.27;;;10.10;86.50;;;;;;5056177;28;20049;-75
2021/05/05 04:10:46;;;;;;;7.60;1.80;;;10.20;87.40;;;;;;5052696;28;20073;-75
2021/05/05 04:13:13;;;;;;;7.25;2.25;;;10.30;89.70;;;;;;5051710;28;20485;-75
2021/05/05 04:15:59;;;;;;;4.68;2.20;;;10.00;94.60;;;;;;5050442;28;20047;-75
2021/05/05 04:18:44;;;;;;;3.28;1.60;;;9.80;96.00;;;;;;5052405;28;20056;-75
2021/05/05 04:21:28;;;;;;;3.53;1.90;;;10.10;95.40;;;;;;5047173;28;20116;-75
2021/05/05 04:24:13;;;;;;;4.75;2.20;;;10.00;97.00;;;;;;5034832;28;20107;-75
2021/05/05 04:26:39;;;;;;;5.63;2.28;;;9.80;99.20;;;;;;5051123;28;20480;-75
2021/05/05 04:29:05;;;;;;;7.72;2.22;;;9.90;99.40;;;;;;5055600;28;20055;-75
2021/05/05 04:31:32;;;;;;;4.30;1.85;;;10.00;98.60;;;;;;5050612;28;20045;-74
2021/05/05 04:33:59;;;;;;;3.33;1.75;;;9.90;99.20;;;;;;5049195;28;20053;-74
2021/05/05 04:36:25;;;;;;;5.00;1.58;;;9.70;99.90;;;;;;5048729;28;20049;-73
2021/05/05 04:38:52;;;;;;;1.60;1.30;;;9.80;99.90;;;;;;5051252;28;20080;-75
2021/05/05 04:41:18;;;;;;;3.58;1.90;;;9.90;99.60;;;;;;5052591;28;20048;-74
2021/05/05 04:43:45;;;;;;;7.28;1.73;;;9.80;98.20;;;;;;5052568;28;20091;-75
2021/05/05 04:46:11;;;;;;;3.13;1.15;;;9.80;92.50;;;;;;5050608;28;20260;-76
2021/05/05 04:48:38;;;;;;;5.40;1.30;;;9.80;89.30;;;;;;5050694;28;20053;-75
2021/05/05 04:51:06;;;;;;;7.22;1.55;;;9.70;83.90;;;;;;5047167;28;20473;-74
2021/05/05 04:53:33;;;;;;;6.32;1.35;;;9.80;81.90;;;;;;5049609;28;20431;-75
2021/05/05 04:56:00;;;;;;;6.93;1.40;;;9.70;79.10;;;;;;5046727;28;20053;-74
2021/05/05 04:58:27;;;;;;;5.47;1.40;;;9.70;77.70;;;;;;5050054;28;20048;-75
2021/05/05 05:00:54;;;;;;;5.10;1.30;;;9.80;76.00;;;;;;5050110;28;20041;-74
2021/05/05 05:03:20;;;;;;;6.97;1.40;;;9.70;75.80;;;;;;5042976;28;20044;-73
2021/05/05 05:05:47;;;;;;;5.82;1.17;;;9.70;74.20;;;;;;5046529;28;20053;-75
2021/05/05 05:08:14;;;;;;;6.05;1.30;;;9.70;72.60;;;;;;5050638;28;20442;-76
2021/05/05 05:10:40;;;;;;;7.28;1.52;;;9.60;72.50;;;;;;5046492;28;20076;-76
2021/05/05 05:13:06;;;;;;;3.92;1.10;;;9.60;72.60;;;;;;5045240;28;20077;-75
2021/05/05 05:15:33;;;;;;;4.88;1.70;;;9.70;71.90;;;;;;5046813;28;20111;-75
2021/05/05 05:17:59;;;;;;;8.75;1.60;;;9.70;70.70;;;;;;5049665;28;20045;-74
2021/05/05 05:20:26;;;;;;;13.07;1.92;;;9.70;70.60;;;;;;5052762;28;20101;-74
2021/05/05 05:22:55;;;;;;;4.35;1.50;;;9.80;70.10;;;;;;5052442;28;20037;-74
2021/05/05 05:25:24;;;;;;;3.20;1.10;;;9.70;69.00;;;;;;5051264;28;20051;-74
2021/05/05 05:27:53;;;;;;;3.65;1.52;;;9.70;68.30;;;;;;5047465;28;20396;-74
2021/05/05 05:30:23;;;;;;;5.75;1.75;;;9.80;68.50;;;;;;5043666;28;20060;-76
2021/05/05 05:32:49;;;;;;;6.25;1.50;;;10.00;66.80;;;;;;5050716;28;20057;-74
2021/05/05 05:35:16;;;;;;;7.45;1.77;;;10.10;66.00;;;;;;5049296;28;20064;-75
2021/05/05 05:37:43;;;;;;;5.38;1.27;;;10.10;66.30;;;;;;5049622;28;20056;-73
2021/05/05 05:40:11;;;;;;;9.93;1.30;;;10.10;65.20;;;;;;5048525;28;20056;-76
2021/05/05 05:42:38;;;;;;;10.20;1.40;;;10.20;64.90;;;;;;5047297;28;20110;-75
2021/05/05 05:45:05;;;;;;;11.20;1.67;;;10.00;65.50;;;;;;5049622;28;20036;-75
2021/05/05 05:47:36;;;;;;;5.60;1.42;;;10.10;65.50;;;;;;5049127;28;20159;-77
2021/05/05 05:50:03;;;;;;;5.55;1.35;;;10.20;64.60;;;;;;5048305;28;20089;-75
2021/05/05 05:52:30;;;;;;;4.35;1.48;;;10.30;64.30;;;;;;5049031;28;20068;-75
2021/05/05 05:54:57;;;;;;;7.65;2.00;;;10.10;64.60;;;;;;5048972;28;20392;-75
2021/05/05 05:57:23;;;;;;;7.95;1.63;;;10.30;64.20;;;;;;5049825;28;20421;-74
2021/05/05 05:59:50;;;;;;;10.82;1.50;;;10.30;65.00;;;;;;5049582;28;20429;-75
2021/05/05 06:02:17;;;;;;;7.72;1.92;;;10.30;64.90;;;;;;5047654;28;20113;-76
2021/05/05 06:04:44;;;;;;;17.00;2.03;;;10.50;63.90;;;;;;5043850;28;20057;-74
2021/05/05 06:07:11;;;;;;;7.65;1.48;;;10.70;63.20;;;;;;5061241;28;20050;-75
2021/05/05 06:09:38;;;;;;;6.07;1.45;;;10.50;62.30;;;;;;5049242;28;20569;-75
2021/05/05 06:12:05;;;;;;;5.10;1.30;;;11.00;61.90;;;;;;5049082;28;20159;-75
2021/05/05 06:14:32;;;;;;;5.97;1.67;;;11.20;61.10;;;;;;5044699;28;20044;-76
2021/05/05 06:16:58;;;;;;;6.15;1.17;;;11.90;59.70;;;;;;5049157;28;20060;-75
2021/05/05 06:19:26;;;;;;;6.53;1.48;;;12.60;58.30;;;;;;5058030;28;20142;-76
2021/05/05 06:21:52;;;;;;;8.95;1.55;;;12.80;56.50;;;;;;5061186;28;20042;-75
2021/05/05 06:24:19;;;;;;;6.22;1.60;;;11.90;56.80;;;;;;5042608;28;20439;-76
2021/05/05 06:26:46;;;;;;;9.07;1.40;;;10.80;59.50;;;;;;5031182;28;20106;-79
2021/05/05 06:29:12;;;;;;;9.98;1.80;;;11.40;59.50;;;;;;5033076;28;20056;-78
2021/05/05 06:31:39;;;;;;;7.65;1.80;;;10.70;59.80;;;;;;5034370;28;21800;-78
2021/05/05 06:34:05;;;;;;;5.80;1.48;;;10.60;62.00;;;;;;5034760;28;20076;-78
2021/05/05 06:36:33;;;;;;;8.80;2.47;;;10.60;60.90;;;;;;5035456;28;20052;-79
2021/05/05 06:39:00;;;;;;;7.95;1.40;;;10.60;61.00;;;;;;5036413;28;20523;-79
2021/05/05 06:41:26;;;;;;;7.13;1.80;;;10.40;61.70;;;;;;5038773;28;20062;-78
2021/05/05 06:43:53;;;;;;;5.72;1.98;;;10.20;62.20;;;;;;5037546;28;20132;-79
2021/05/05 06:46:20;;;;;;;9.70;2.45;;;10.40;62.30;;;;;;5042819;28;20052;-77
2021/05/05 06:48:47;;;;;;;7.00;1.35;;;10.40;62.30;;;;;;5039382;28;20076;-77
2021/05/05 06:51:13;;;;;;;8.30;2.20;;;10.20;61.50;;;;;;5038764;28;20143;-79
2021/05/05 06:53:40;;;;;;;7.53;1.80;;;10.10;61.50;;;;;;5035246;28;20045;-76
2021/05/05 06:56:06;;;;;;;8.05;2.05;;;10.00;61.10;;;;;;5036693;28;20499;-77
2021/05/05 06:58:33;;;;;;;7.60;2.00;;;10.50;59.60;;;;;;5035083;28;20411;-77
2021/05/05 07:01:00;;;;;;;5.80;1.50;;;10.90;58.20;;;;;;5036331;28;20040;-77
2021/05/05 07:03:27;;;;;;;7.78;1.38;;;11.30;57.60;;;;;;5035598;28;20048;-78
2021/05/05 07:05:53;;;;;;;5.90;1.55;;;10.70;58.70;;;;;;5037083;28;20068;-77
2021/05/05 07:08:20;;;;;;;9.50;1.70;;;10.40;59.20;;;;;;5037302;28;20344;-78
2021/05/05 07:10:46;;;;;;;11.07;2.15;;;10.60;59.70;;;;;;5034509;28;20496;-77
2021/05/05 07:13:13;;;;;;;8.20;1.58;;;10.70;59.20;;;;;;5037071;28;20501;-77
2021/05/05 07:15:39;;;;;;;8.43;2.03;;;10.40;58.30;;;;;;5035431;28;20496;-79
2021/05/05 07:18:06;;;;;;;4.38;1.58;;;10.50;58.10;;;;;;5035465;28;20080;-75
2021/05/05 07:20:32;;;;;;;4.40;1.63;;;10.20;58.20;;;;;;5034016;28;20045;-77
2021/05/05 07:22:58;;;;;;;4.00;1.52;;;10.40;59.10;;;;;;5037107;28;20425;-78
2021/05/05 07:25:28;;;;;;;8.65;1.90;;;10.60;58.40;;;;;;5036020;28;20145;-78
2021/05/05 07:27:57;;;;;;;8.63;1.70;;;11.00;58.00;;;;;;5042590;28;20052;-77
2021/05/05 07:30:25;;;;;;;8.95;1.60;;;11.70;57.00;;;;;;5040782;28;20084;-77
2021/05/05 07:32:52;;;;;;;9.07;1.50;;;11.40;56.40;;;;;;5021945;28;20057;-78
2021/05/05 07:35:20;;;;;;;4.55;1.33;;;10.90;57.00;;;;;;5040332;28;20131;-78
2021/05/05 07:43:30;;;;;;;5.63;1.55;;;11.00;56.90;;;;;;5038380;28;20045;-79
2021/05/05 07:51:01;;;;;;;7.57;1.50;;;11.20;56.50;;;;;;5040292;28;21414;-78
2021/05/05 07:53:27;;;;;;;4.72;1.48;;;11.50;55.60;;;;;;5040127;28;20048;-78
2021/05/05 07:55:56;;;;;;;7.63;2.42;;;11.40;55.60;;;;;;5035900;28;20043;-77
2021/05/05 07:58:22;;;;;;;5.97;1.63;;;11.50;55.30;;;;;;5040448;28;20037;-77
2021/05/05 08:00:48;;;;;;;9.50;1.30;;;11.60;55.40;;;;;;5037992;28;20044;-78
2021/05/05 08:03:14;;;;;;;6.55;1.90;;;11.70;55.20;;;;;;5039205;28;20424;-78
2021/05/05 08:05:41;;;;;;;5.50;1.70;;;11.90;54.80;;;;;;5039449;28;20492;-78
2021/05/05 08:08:07;;;;;;;3.88;1.40;;;11.70;54.90;;;;;;5041777;28;20064;-78
2021/05/05 08:10:34;;;;;;;5.50;1.33;;;11.70;53.20;;;;;;5037554;28;20077;-79
2021/05/05 08:13:03;;;;;;;7.00;1.70;;;11.60;53.90;;;;;;5040523;28;20053;-78
2021/05/05 08:15:33;;;;;;;4.18;1.48;;;12.10;53.40;;;;;;5040410;28;20411;-78
2021/05/05 08:18:02;;;;;;;4.95;1.40;;;12.00;52.20;;;;;;5040988;28;20712;-78
2021/05/05 08:20:29;;;;;;;2.35;0.80;;;11.70;53.40;;;;;;5036766;28;20103;-78
2021/05/05 08:22:56;;;;;;;6.28;1.33;;;11.70;52.80;;;;;;5038233;28;20059;-76
2021/05/05 08:25:23;;;;;;;7.18;1.00;;;11.90;52.90;;;;;;5035897;28;20057;-78
2021/05/05 08:27:50;;;;;;;4.30;1.25;;;11.80;52.10;;;;;;5018944;28;20520;-79
2021/05/05 08:30:17;;;;;;;3.05;1.30;;;11.40;52.40;;;;;;5037228;28;20049;-78
2021/05/05 08:32:46;;;;;;;8.93;1.65;;;11.50;53.20;;;;;;5036985;28;21420;-78
2021/05/05 08:35:13;;;;;;;6.40;1.23;;;11.80;53.40;;;;;;5053341;28;20093;-80
2021/05/05 08:37:39;;;;;;;5.65;1.35;;;11.80;52.80;;;;;;5037754;28;20304;-78
2021/05/05 08:40:09;;;;;;;4.60;1.50;;;11.70;52.80;;;;;;5039967;28;20057;-79
2021/05/05 08:42:39;;;;;;;4.65;1.10;;;11.90;52.10;;;;;;5036563;28;20053;-78
2021/05/05 08:45:13;;;;;;;4.90;1.27;;;12.00;51.40;;;;;;5056466;28;20049;-78
2021/05/05 08:47:42;;;;;;;3.00;1.27;;;12.20;51.40;;;;;;5037164;28;20152;-79
2021/05/05 08:50:11;;;;;;;8.27;1.40;;;12.40;50.60;;;;;;5036306;28;20060;-78
2021/05/05 08:52:39;;;;;;;6.38;1.30;;;12.50;50.70;;;;;;5040910;28;20110;-80
2021/05/05 08:55:08;;;;;;;5.68;1.42;;;12.50;49.60;;;;;;5037400;28;20045;-80
2021/05/05 08:57:35;;;;;;;4.65;1.15;;;12.40;49.10;;;;;;5036282;28;20053;-77
2021/05/05 09:00:07;;;;;;;2.20;1.00;;;12.30;49.20;;;;;;5036754;28;20608;-78
2021/05/05 09:02:34;;;;;;;6.72;1.10;;;12.10;48.70;;;;;;5039412;28;20472;-78
2021/05/05 09:05:05;;;;;;;4.72;1.08;;;12.00;49.80;;;;;;5040265;28;20098;-79
2021/05/05 09:07:37;;;;;;;4.68;0.90;;;11.90;49.00;;;;;;5039173;28;20056;-79
2021/05/05 09:10:09;;;;;;;2.28;1.23;;;11.90;49.50;;;;;;5038442;28;20053;-78
2021/05/05 09:12:44;;;;;;;5.75;1.10;;;11.50;50.40;;;;;;5054748;28;20057;-78
2021/05/05 09:15:29;;;;;;;6.35;1.20;;;11.40;52.20;;;;;;5036445;28;20049;-77
2021/05/05 09:17:56;;;;;;;1.13;0.68;;;11.20;53.60;;;;;;5037415;28;20052;-77
2021/05/05 09:20:23;;;;;;;3.00;0.80;;;11.10;52.70;;;;;;5036013;28;20052;-77
2021/05/05 09:23:10;;;;;;;2.15;0.90;;;11.30;52.30;;;;;;5037408;28;20476;-78
2021/05/05 09:25:36;;;;;;;3.00;1.00;;;11.40;53.40;;;;;;5058222;28;20045;-79
2021/05/05 09:28:10;;;;;;;2.58;0.90;;;11.70;53.50;;;;;;5046016;28;20368;-78
2021/05/05 09:30:40;;;;;;;4.20;1.02;;;12.10;52.20;;;;;;5043847;28;20067;-80
2021/05/05 09:33:07;;;;;;;2.43;1.07;;;12.20;52.10;;;;;;5047460;28;20048;-78
2021/05/05 09:35:35;;;;;;;3.85;1.10;;;11.90;52.60;;;;;;5045896;28;20057;-78
2021/05/05 09:38:08;;;;;;;9.10;1.25;;;11.80;53.10;;;;;;5047182;28;20053;-78
2021/05/05 09:40:36;;;;;;;7.82;1.20;;;11.80;52.90;;;;;;5029657;28;20132;-76
2021/05/05 09:43:16;;;;;;;5.43;1.10;;;10.00;58.40;;;;;;5043500;28;20052;-77
2021/05/05 09:45:46;;;;;;;9.05;0.73;;;8.80;74.60;;;;;;5045434;28;20040;-78
2021/05/05 09:48:22;;;;;;;2.33;0.75;;;8.10;90.30;;;;;;5043140;28;20422;-75
2021/05/05 09:50:56;;;;;;;1.52;0.73;;;7.80;90.30;;;;;;5041868;28;20044;-76
2021/05/05 09:53:32;;;;;;;3.22;0.60;;;8.10;91.80;;;;;;5041598;28;20056;-75
2021/05/05 09:55:59;;;;;;;0.95;0.65;;;8.30;90.00;;;;;;5041312;28;20070;-74
2021/05/05 09:58:32;;;;;;;2.50;0.90;;;8.50;88.40;;;;;;5042871;28;20579;-75
2021/05/05 10:01:05;;;;;;;0.70;0.70;;;9.10;91.90;;;;;;5042765;28;20455;-74
2021/05/05 10:03:39;;;;;;;1.77;0.82;;;9.40;89.20;;;;;;5042065;28;20545;-74
2021/05/05 10:06:24;;;;;;;1.27;0.60;;;9.80;83.50;;;;;;5041606;28;20045;-74
2021/05/05 10:08:58;;;;;;;1.02;0.70;;;10.30;70.40;;;;;;5041259;28;20126;-74
2021/05/05 10:11:27;;;;;;;4.05;0.65;;;10.70;70.30;;;;;;5041878;28;20057;-72
2021/05/05 10:13:57;;;;;;;4.00;1.00;;;10.70;71.00;;;;;;5038237;28;20076;-73
2021/05/05 10:16:25;;;;;;;1.10;0.95;;;10.90;70.00;;;;;;5041161;28;20088;-73
2021/05/05 10:18:52;;;;;;;1.40;0.75;;;10.90;69.30;;;;;;5038995;28;20064;-74
2021/05/05 10:21:22;;;;;;;2.72;0.90;;;10.70;67.30;;;;;;5039719;28;20049;-74
2021/05/05 10:23:49;;;;;;;1.88;1.00;;;11.20;67.60;;;;;;5040851;28;20049;-74
2021/05/05 10:26:19;;;;;;;10.32;1.10;;;11.40;64.20;;;;;;5037586;28;20048;-73
2021/05/05 10:28:46;;;;;;;1.92;1.00;;;11.20;62.70;;;;;;5039577;28;20103;-73
2021/05/05 10:31:17;;;;;;;2.95;0.75;;;11.60;62.70;;;;;;5041108;28;20753;-75
2021/05/05 10:33:47;;;;;;;1.65;0.65;;;11.90;61.70;;;;;;5041202;28;20119;-75
2021/05/05 10:36:29;;;;;;;2.72;0.90;;;11.70;58.10;;;;;;5041703;28;20053;-76
2021/05/05 10:38:57;;;;;;;0.80;0.73;;;12.40;58.60;;;;;;5042137;28;20048;-74
2021/05/05 10:41:24;;;;;;;1.15;0.52;;;12.40;57.10;;;;;;5041449;28;20211;-74
2021/05/05 10:43:58;;;;;;;2.72;0.60;;;12.60;54.60;;;;;;5040764;28;20048;-72
2021/05/05 10:46:26;;;;;;;2.80;0.90;;;12.60;54.60;;;;;;5041334;28;20445;-74
2021/05/05 10:49:01;;;;;;;3.60;0.82;;;12.60;54.60;;;;;;5040601;28;20060;-73
2021/05/05 10:51:52;;;;;;;1.10;0.77;;;12.20;54.40;;;;;;5041384;28;20064;-74
2021/05/05 10:54:20;;;;;;;2.28;0.82;;;12.40;54.30;;;;;;5042588;28;20068;-73
2021/05/05 10:57:12;;;;;;;1.77;0.80;;;11.80;53.40;;;;;;5031481;28;20142;-73
2021/05/05 10:59:57;;;;;;;2.38;0.77;;;13.20;51.80;;;;;;5041156;28;20359;-73
2021/05/05 11:05:20;;;;;;;2.17;1.10;;;12.30;51.70;;;;;;5044679;28;20081;-74
2021/05/05 11:07:51;;;;;;;1.02;0.93;;;12.40;51.60;;;;;;5046727;28;20972;-74
2021/05/05 11:10:39;;;;;;;5.70;1.10;;;12.30;51.80;;;;;;5045385;28;20107;-73
2021/05/05 11:13:15;;;;;;;1.33;0.75;;;12.10;50.70;;;;;;5044775;28;20041;-74
2021/05/05 11:15:42;;;;;;;3.63;1.00;;;12.10;52.40;;;;;;5044439;28;20052;-73
2021/05/05 11:18:30;;;;;;;4.95;1.10;;;12.40;50.40;;;;;;5045968;28;20502;-73
2021/05/05 11:21:09;;;;;;;3.53;0.80;;;12.70;49.90;;;;;;5044019;28;20064;-72
2021/05/05 11:23:35;;;;;;;1.63;0.82;;;12.00;50.80;;;;;;5044182;28;20511;-73
2021/05/05 11:26:17;;;;;;;4.85;0.88;;;12.20;50.30;;;;;;5054539;28;20049;-73
2021/05/05 11:29:15;;;;;;;4.13;1.05;;;12.80;50.50;;;;;;5043689;28;20048;-72
2021/05/05 11:31:48;;;;;;;2.63;1.05;;;13.20;47.70;;;;;;5040463;28;20903;-74
2021/05/05 11:34:27;;;;;;;3.92;1.02;;;12.60;48.20;;;;;;5045523;28;20052;-73
2021/05/05 11:37:14;;;;;;;1.38;0.80;;;13.20;47.80;;;;;;5045028;28;20238;-72
2021/05/05 11:39:45;;;;;;;2.05;0.90;;;13.40;46.00;;;;;;5043054;28;20506;-73
2021/05/05 11:42:13;;;;;;;1.50;0.90;;;13.70;46.50;;;;;;5044411;28;20120;-72
2021/05/05 11:45:02;;;;;;;1.35;0.93;;;13.60;45.50;;;;;;5044914;28;20041;-72
2021/05/05 11:47:33;;;;;;;3.88;0.80;;;13.90;44.90;;;;;;5045481;28;20055;-74
2021/05/05 11:50:09;;;;;;;1.00;0.80;;;14.20;44.90;;;;;;5037804;28;20045;-74
2021/05/05 11:52:38;;;;;;;3.88;1.00;;;13.60;45.40;;;;;;5043920;28;20064;-72
2021/05/05 11:55:07;;;;;;;3.50;0.98;;;13.50;45.20;;;;;;5044613;28;20068;-73
2021/05/05 11:57:37;;;;;;;1.73;0.90;;;13.10;45.10;;;;;;5042971;28;20111;-72
2021/05/05 12:00:21;;;;;;;9.35;1.08;;;13.00;46.80;;;;;;5045282;28;20057;-72
2021/05/05 12:02:54;;;;;;;1.40;0.60;;;15.00;44.00;;;;;;5045925;28;20048;-76
2021/05/05 12:05:29;;;;;;;2.10;0.95;;;14.40;43.60;;;;;;5044705;28;20052;-75
2021/05/05 12:08:14;;;;;;;5.70;1.75;;;14.50;44.00;;;;;;5045766;28;20063;-75
2021/05/05 12:10:43;;;;;;;5.05;1.98;;;14.90;44.00;;;;;;5046463;28;20053;-74
2021/05/05 12:13:40;;;;;;;5.38;1.15;;;14.60;44.70;;;;;;5043993;28;20079;-73
2021/05/05 12:16:14;;;;;;;3.05;1.60;;;14.70;41.90;;;;;;5041331;28;20357;-74
2021/05/05 12:18:48;;;;;;;5.07;1.88;;;16.80;41.50;;;;;;5043641;28;20072;-77
2021/05/05 12:21:19;;;;;;;4.50;2.22;;;18.20;36.60;;;;;;5046258;28;20041;-75
2021/05/05 12:23:50;;;;;;;3.60;1.77;;;18.20;33.70;;;;;;5043963;28;20156;-76
2021/05/05 12:26:25;;;;;;;2.30;1.35;;;18.60;33.60;;;;;;5043734;28;20385;-76
2021/05/05 12:28:54;;;;;;;4.88;1.55;;;18.50;33.60;;;;;;5044683;28;20053;-74
2021/05/05 12:31:23;;;;;;;3.05;1.20;;;18.10;33.30;;;;;;5044288;28;20059;-76
2021/05/05 12:33:50;;;;;;;2.15;1.38;;;16.10;35.10;;;;;;5045934;28;20399;-75
2021/05/05 12:36:24;;;;;;;3.35;1.80;;;17.60;36.80;;;;;;5045793;28;20438;-75
2021/05/05 12:38:56;;;;;;;2.88;1.45;;;15.80;35.50;;;;;;5045699;28;20144;-74
2021/05/05 12:41:25;;;;;;;3.38;1.23;;;16.30;38.00;;;;;;5045907;28;20057;-74
2021/05/05 12:43:54;;;;;;;4.30;0.90;;;15.50;36.50;;;;;;5043561;28;20514;-75
2021/05/05 12:46:22;;;;;;;4.50;1.30;;;14.90;38.40;;;;;;5045141;28;20636;-75
2021/05/05 12:48:50;;;;;;;3.75;1.25;;;14.40;39.40;;;;;;5046240;28;20037;-75
2021/05/05 12:51:20;;;;;;;2.63;1.38;;;14.30;40.40;;;;;;5043514;28;20052;-76
2021/05/05 12:53:52;;;;;;;5.18;1.70;;;13.60;41.40;;;;;;5045047;28;20059;-78
2021/05/05 12:56:35;;;;;;;3.03;1.30;;;13.60;42.60;;;;;;5043506;28;20106;-76
2021/05/05 12:59:03;;;;;;;7.68;1.48;;;13.50;42.60;;;;;;5032298;28;20737;-76
2021/05/05 13:01:29;;;;;;;3.85;1.38;;;12.90;45.60;;;;;;5038790;28;20041;-79
2021/05/05 13:03:57;;;;;;;3.22;0.70;;;12.20;48.60;;;;;;5036953;28;20136;-79
2021/05/05 13:06:46;;;;;;;6.82;1.45;;;11.80;50.20;;;;;;5038910;28;20059;-79
2021/05/05 13:09:22;;;;;;;3.95;1.20;;;11.60;50.70;;;;;;5037486;28;20053;-78
2021/05/05 13:11:52;;;;;;;1.17;0.90;;;11.40;52.10;;;;;;5037571;28;20057;-79